Time;durP1;ratioP1;P1;durP2;ratioP2;P2;SDS_P1;SDS_P2;PMS_P1;PMS_P2;Temp;Humidity;BMP_temperature;BMP_pressure;BME280_temperature;BME280_humidity;BME280_pressure;Samples;Min_cycle;Max_cycle;Signal;HPM_P1;HPM_P2
2024/01/30 00:00:00;;;;;;;8.15;5.60;;;;;;;9.70;43.54;102354.31;5027915;28;20527;-75
2024/01/30 00:02:28;;;;;;;8.55;5.60;;;;;;;9.70;43.64;102354.31;5024376;28;20049;-76
2024/01/30 00:04:57;;;;;;;8.07;5.35;;;;;;;9.70;43.07;102354.31;5021257;28;20125;-75
2024/01/30 00:07:25;;;;;;;7.70;5.53;;;;;;;9.67;43.40;102351.75;5021030;28;20046;-75
2024/01/30 00:09:53;;;;;;;8.15;5.50;;;;;;;9.65;43.30;102353.72;5024666;28;20144;-75
2024/01/30 00:12:21;;;;;;;7.90;5.63;;;;;;;9.63;43.33;102351.09;5021829;28;20053;-75
2024/01/30 00:14:49;;;;;;;8.32;5.75;;;;;;;9.63;43.39;102351.09;5021029;28;20056;-75
2024/01/30 00:17:22;;;;;;;6.80;5.40;;;;;;;9.60;43.37;102350.38;5022527;28;20045;-75
2024/01/30 00:19:49;;;;;;;7.97;5.93;;;;;;;9.59;43.22;102346.75;5023368;28;20045;-76
2024/01/30 00:22:25;;;;;;;9.00;6.50;;;;;;;9.61;43.42;102346.66;5056134;23;20053;-76
2024/01/30 00:25:06;;;;;;;10.18;6.63;;;;;;;9.56;43.36;102349.69;4995237;28;20389;-74
2024/01/30 00:27:34;;;;;;;7.45;5.55;;;;;;;9.55;43.34;102339.72;4996721;28;20045;-73
2024/01/30 00:30:02;;;;;;;8.05;6.20;;;;;;;9.55;43.16;102341.56;5004495;28;20048;-73
2024/01/30 00:32:30;;;;;;;8.43;5.95;;;;;;;9.54;43.40;102345.28;5014303;28;20046;-74
2024/01/30 00:34:58;;;;;;;8.57;5.53;;;;;;;9.54;43.51;102343.44;4983344;28;20808;-74
2024/01/30 00:37:28;;;;;;;8.80;6.07;;;;;;;9.54;43.27;102346.16;5000803;28;20209;-73
2024/01/30 00:39:56;;;;;;;9.70;6.32;;;;;;;9.52;43.34;102336.28;4981674;28;20442;-74
2024/01/30 00:42:25;;;;;;;9.43;6.22;;;;;;;9.52;43.55;102347.22;4982888;28;20053;-74
2024/01/30 00:44:53;;;;;;;9.50;6.97;;;;;;;9.49;43.44;102344.69;4988369;28;20157;-74
2024/01/30 00:47:20;;;;;;;8.60;5.90;;;;;;;9.50;43.21;102335.47;4982659;28;20043;-74
2024/01/30 00:49:49;;;;;;;9.75;6.47;;;;;;;9.47;43.70;102331.09;4986348;28;20132;-74
2024/01/30 00:52:17;;;;;;;7.05;5.53;;;;;;;9.46;43.65;102346.63;4998483;28;20035;-74
2024/01/30 00:54:47;;;;;;;7.18;5.45;;;;;;;9.47;43.24;102339.31;4978690;28;20058;-74
2024/01/30 00:57:15;;;;;;;9.27;6.85;;;;;;;9.44;43.31;102334.88;4982692;28;20057;-74
2024/01/30 00:59:42;;;;;;;9.80;6.55;;;;;;;9.43;43.59;102337.72;4979162;28;20065;-74
2024/01/30 01:02:10;;;;;;;8.07;6.28;;;;;;;9.41;43.53;102337.78;4979194;28;20061;-74
2024/01/30 01:04:39;;;;;;;8.48;6.32;;;;;;;9.40;43.51;102338.78;4982744;28;20050;-74
2024/01/30 01:07:07;;;;;;;9.13;6.35;;;;;;;9.38;43.57;102346.19;4978785;28;20097;-73
2024/01/30 01:09:35;;;;;;;9.20;6.40;;;;;;;9.37;43.33;102343.50;4978504;28;20050;-74
2024/01/30 01:12:05;;;;;;;8.48;6.35;;;;;;;9.38;43.92;102348.00;4981141;28;20053;-73
2024/01/30 01:14:33;;;;;;;9.73;6.07;;;;;;;9.35;43.58;102343.59;4998671;28;20478;-74
2024/01/30 01:17:01;;;;;;;7.75;6.05;;;;;;;9.34;43.91;102341.84;4980343;28;20051;-73
2024/01/30 01:19:28;;;;;;;7.78;6.05;;;;;;;9.35;43.59;102345.44;4983218;28;20050;-74
2024/01/30 01:21:57;;;;;;;8.02;5.88;;;;;;;9.33;43.56;102339.22;4980802;28;20074;-74
2024/01/30 01:24:25;;;;;;;8.55;6.20;;;;;;;9.33;43.56;102342.78;4982517;28;20129;-74
2024/01/30 01:26:53;;;;;;;9.30;6.32;;;;;;;9.33;43.71;102341.94;4978840;28;20164;-74
2024/01/30 01:29:28;;;;;;;8.70;6.50;;;;;;;9.33;43.52;102342.78;4986654;28;20098;-74
2024/01/30 01:31:56;;;;;;;8.75;6.03;;;;;;;9.31;43.53;102339.31;4983995;28;20121;-74
2024/01/30 01:34:25;;;;;;;9.77;6.00;;;;;;;9.31;43.57;102343.88;4985041;28;20062;-74
2024/01/30 01:36:57;;;;;;;8.80;6.10;;;;;;;9.30;43.86;102342.13;4983127;28;20043;-74
2024/01/30 01:39:25;;;;;;;9.52;6.20;;;;;;;9.29;43.88;102337.63;4998327;28;20129;-74
2024/01/30 01:41:53;;;;;;;8.50;6.25;;;;;;;9.27;43.57;102334.97;4982949;28;20049;-74
2024/01/30 01:44:22;;;;;;;8.10;5.95;;;;;;;9.29;43.75;102337.63;4980600;28;20113;-74
2024/01/30 01:46:52;;;;;;;8.38;5.97;;;;;;;9.26;43.64;102330.47;4979274;28;20057;-74
2024/01/30 01:49:21;;;;;;;9.65;6.32;;;;;;;9.26;43.71;102329.59;4985587;28;20055;-74
2024/01/30 01:51:51;;;;;;;9.00;6.43;;;;;;;9.25;43.74;102333.28;4978328;28;20054;-74
2024/01/30 01:54:19;;;;;;;8.77;5.93;;;;;;;9.24;43.86;102332.44;4997112;28;20047;-73
2024/01/30 01:56:47;;;;;;;9.07;6.68;;;;;;;9.22;43.62;102326.19;4981202;28;20064;-74
2024/01/30 01:59:16;;;;;;;9.20;5.85;;;;;;;9.20;43.88;102322.66;4974455;28;20694;-74
2024/01/30 02:01:48;;;;;;;9.60;6.13;;;;;;;9.22;43.80;102326.19;4981277;28;20047;-74
2024/01/30 02:04:17;;;;;;;9.18;6.25;;;;;;;9.17;43.86;102324.66;4987331;28;20046;-74
2024/01/30 02:06:45;;;;;;;8.80;6.57;;;;;;;9.17;43.69;102320.09;4984354;28;20047;-74
2024/01/30 02:09:13;;;;;;;9.63;5.93;;;;;;;9.17;43.80;102321.94;5004011;28;20042;-74
2024/01/30 02:11:41;;;;;;;9.32;6.32;;;;;;;9.17;43.66;102319.19;5001272;28;20129;-73
2024/01/30 02:14:10;;;;;;;9.18;6.03;;;;;;;9.17;43.52;102319.19;4981473;28;20043;-74
2024/01/30 02:16:38;;;;;;;8.52;6.10;;;;;;;9.15;43.71;102318.44;4985535;28;20256;-74
2024/01/30 02:19:07;;;;;;;9.18;6.18;;;;;;;9.17;44.16;102313.75;4983595;28;20552;-74
2024/01/30 02:21:37;;;;;;;7.90;6.20;;;;;;;9.15;44.00;102313.84;4987496;28;20049;-73
2024/01/30 02:24:06;;;;;;;7.20;5.40;;;;;;;9.14;43.89;102308.47;4986556;28;20588;-74
2024/01/30 02:26:34;;;;;;;10.55;6.20;;;;;;;9.12;43.85;102311.28;5001990;28;20046;-74
2024/01/30 02:29:02;;;;;;;7.82;5.82;;;;;;;9.12;43.95;102311.28;4983620;28;20046;-74
2024/01/30 02:31:30;;;;;;;11.30;6.35;;;;;;;9.11;43.84;102306.78;5000398;28;20093;-74
2024/01/30 02:33:58;;;;;;;8.43;6.55;;;;;;;9.10;43.73;102305.03;4977634;28;20502;-74
2024/01/30 02:36:26;;;;;;;8.43;5.80;;;;;;;9.10;43.99;102300.44;4985797;28;20121;-74
2024/01/30 02:38:56;;;;;;;8.60;6.03;;;;;;;9.12;43.97;102294.03;4984464;28;21480;-73
2024/01/30 02:41:25;;;;;;;8.25;6.10;;;;;;;9.09;44.05;102304.16;4986645;28;20046;-74
2024/01/30 02:43:53;;;;;;;8.23;5.90;;;;;;;9.09;44.27;102298.69;4983990;28;20513;-74
2024/01/30 02:46:21;;;;;;;9.10;6.10;;;;;;;9.08;44.11;102291.47;4985184;28;20568;-74
2024/01/30 02:48:49;;;;;;;9.15;5.80;;;;;;;9.07;44.01;102295.19;5002780;28;20092;-74
2024/01/30 02:51:18;;;;;;;8.07;6.35;;;;;;;9.07;44.05;102291.56;4982670;28;20042;-74
2024/01/30 02:53:46;;;;;;;8.38;6.13;;;;;;;9.07;44.41;102286.13;4979314;28;20049;-75
2024/01/30 02:56:15;;;;;;;7.55;5.75;;;;;;;9.09;44.40;102292.34;4982244;28;20042;-74
2024/01/30 02:58:43;;;;;;;8.18;5.70;;;;;;;9.06;43.94;102293.44;5003201;28;20061;-74
2024/01/30 03:01:11;;;;;;;7.65;5.60;;;;;;;9.07;44.16;102288.84;4986474;28;20520;-74
2024/01/30 03:03:40;;;;;;;9.35;6.43;;;;;;;9.07;44.34;102280.66;4981314;28;20042;-74
2024/01/30 03:06:08;;;;;;;7.93;5.53;;;;;;;9.06;44.20;102279.78;4980304;28;20077;-73
2024/01/30 03:08:37;;;;;;;8.00;6.13;;;;;;;9.07;44.17;102272.47;4978288;28;20043;-73
2024/01/30 03:11:05;;;;;;;7.93;5.85;;;;;;;9.07;43.96;102277.91;4981800;28;20129;-74
2024/01/30 03:13:34;;;;;;;8.63;6.25;;;;;;;9.07;44.05;102280.66;4984592;28;20067;-74
2024/01/30 03:16:02;;;;;;;9.95;6.75;;;;;;;9.04;44.20;102281.69;4981459;28;20130;-74
2024/01/30 03:18:30;;;;;;;8.40;5.70;;;;;;;9.06;44.48;102273.44;4983313;28;20410;-74
2024/01/30 03:20:58;;;;;;;8.98;5.82;;;;;;;9.05;44.22;102268.94;4999635;28;20066;-73
2024/01/30 03:23:26;;;;;;;7.88;6.00;;;;;;;9.05;44.37;102275.28;4996336;28;20084;-73
2024/01/30 03:25:54;;;;;;;8.77;5.60;;;;;;;9.05;44.54;102268.94;4984761;28;20090;-73
2024/01/30 03:28:22;;;;;;;7.72;5.78;;;;;;;9.05;44.10;102268.94;5000878;28;20146;-74
2024/01/30 03:30:51;;;;;;;7.85;5.90;;;;;;;9.06;44.29;102271.56;4985419;28;20047;-74
2024/01/30 03:33:19;;;;;;;8.32;6.38;;;;;;;9.03;44.49;102269.00;4982270;28;20042;-74
2024/01/30 03:35:47;;;;;;;7.43;5.40;;;;;;;9.03;44.62;102269.00;4977783;28;20053;-74
2024/01/30 03:38:15;;;;;;;9.32;5.55;;;;;;;9.04;44.37;102269.91;4986611;28;20589;-75
2024/01/30 03:40:43;;;;;;;7.78;5.53;;;;;;;9.04;44.16;102270.78;4985918;28;20074;-74
2024/01/30 03:43:11;;;;;;;9.13;5.70;;;;;;;9.04;44.52;102270.78;4977848;28;20410;-73
2024/01/30 03:45:39;;;;;;;7.93;5.57;;;;;;;9.03;44.47;102265.41;4998428;28;20066;-73
2024/01/30 03:48:09;;;;;;;8.15;5.88;;;;;;;9.04;44.30;102265.31;4983668;28;20660;-74
2024/01/30 03:50:37;;;;;;;9.10;6.57;;;;;;;9.03;44.29;102263.56;5002960;28;20562;-74
2024/01/30 03:53:05;;;;;;;8.82;5.38;;;;;;;9.03;44.56;102262.66;4978299;28;20518;-74
2024/01/30 03:55:32;;;;;;;8.07;5.82;;;;;;;9.03;44.35;102258.09;4983810;28;20080;-74
2024/01/30 03:58:00;;;;;;;7.75;5.63;;;;;;;9.03;44.56;102263.56;4985497;28;20066;-73
2024/01/30 04:00:28;;;;;;;8.95;5.55;;;;;;;9.04;44.24;102264.44;4985343;28;20042;-74
2024/01/30 04:02:56;;;;;;;9.63;5.97;;;;;;;9.05;44.48;102266.19;4997259;28;20451;-75
2024/01/30 04:05:26;;;;;;;7.32;5.47;;;;;;;9.06;44.63;102263.38;4983658;28;20403;-74
2024/01/30 04:07:54;;;;;;;8.00;5.30;;;;;;;9.05;44.36;102264.34;4987411;28;20112;-74
2024/01/30 04:10:22;;;;;;;9.70;6.15;;;;;;;9.06;44.44;102260.66;4982580;28;20130;-73
2024/01/30 04:12:50;;;;;;;9.15;5.65;;;;;;;9.06;44.30;102263.38;5000864;28;20054;-74
2024/01/30 04:15:18;;;;;;;6.97;5.30;;;;;;;9.06;44.42;102257.03;4999947;28;20070;-74
2024/01/30 04:17:45;;;;;;;10.05;5.40;;;;;;;9.07;44.43;102259.69;4984227;28;20098;-74
2024/01/30 04:20:15;;;;;;;8.88;5.72;;;;;;;9.07;44.56;102262.41;4978725;28;20437;-74
2024/01/30 04:22:45;;;;;;;8.43;5.60;;;;;;;9.08;44.71;102261.41;4985616;28;20049;-74
2024/01/30 04:25:14;;;;;;;8.88;5.68;;;;;;;9.05;44.14;102253.44;4986454;28;20050;-74
2024/01/30 04:27:42;;;;;;;7.13;5.40;;;;;;;9.05;44.70;102245.22;4982336;28;20065;-74
2024/01/30 04:30:11;;;;;;;8.20;5.60;;;;;;;9.06;44.41;102252.47;4983976;28;20527;-73
2024/01/30 04:32:39;;;;;;;9.02;5.30;;;;;;;9.06;44.27;102246.13;5001285;28;20034;-74
2024/01/30 04:35:07;;;;;;;9.40;5.93;;;;;;;9.06;44.38;102241.53;4980371;28;20046;-74
2024/01/30 04:37:39;;;;;;;7.60;5.68;;;;;;;9.05;44.30;102247.09;4982620;28;20062;-73
2024/01/30 04:40:09;;;;;;;9.25;6.30;;;;;;;9.06;44.55;102244.28;4997254;28;20664;-73
2024/01/30 04:42:37;;;;;;;8.43;5.95;;;;;;;9.05;44.58;102244.34;5003079;28;20046;-72
2024/01/30 04:45:07;;;;;;;9.00;6.07;;;;;;;9.06;44.61;102247.00;5000698;28;20046;-73
2024/01/30 04:47:35;;;;;;;8.63;5.63;;;;;;;9.04;44.28;102248.94;5002625;28;20042;-73
2024/01/30 04:50:04;;;;;;;8.63;5.38;;;;;;;9.04;44.71;102248.94;4994842;28;20047;-74
2024/01/30 04:52:33;;;;;;;9.68;5.97;;;;;;;9.05;44.44;102252.53;4983535;28;20146;-73
2024/01/30 04:55:01;;;;;;;8.45;5.35;;;;;;;9.05;44.61;102247.09;4974738;28;20038;-73
2024/01/30 04:57:31;;;;;;;8.18;5.10;;;;;;;9.06;44.84;102251.56;5003265;28;20509;-73
2024/01/30 04:59:59;;;;;;;9.45;6.25;;;;;;;9.05;44.87;102241.63;4980569;28;20046;-73
2024/01/30 05:02:28;;;;;;;8.82;5.93;;;;;;;9.06;44.63;102249.72;4996340;28;20518;-73
2024/01/30 05:04:56;;;;;;;7.50;5.47;;;;;;;9.05;44.69;102242.50;4980028;28;20106;-73
2024/01/30 05:07:25;;;;;;;7.70;5.95;;;;;;;9.05;44.98;102244.34;4984832;28;20056;-73
2024/01/30 05:09:54;;;;;;;7.63;5.32;;;;;;;9.05;44.82;102236.16;4987530;28;20042;-72
2024/01/30 05:12:25;;;;;;;;;;;;;;;8.79;45.50;102243.16;4987379;28;20038;-73
2024/01/30 05:14:55;;;;;;;7.53;5.43;;;;;;;9.01;44.88;102238.19;4979114;28;20020;-73
2024/01/30 05:17:23;;;;;;;8.00;5.50;;;;;;;9.03;44.67;102251.75;4988105;28;20042;-72
2024/01/30 05:19:51;;;;;;;7.55;5.50;;;;;;;9.04;44.46;102239.84;4983514;28;20092;-72
2024/01/30 05:22:20;;;;;;;7.88;5.53;;;;;;;9.03;44.54;102240.81;4992987;28;20038;-74
2024/01/30 05:24:48;;;;;;;9.15;5.75;;;;;;;9.02;44.40;102239.94;4996351;28;20043;-73
2024/01/30 05:27:17;;;;;;;8.25;5.60;;;;;;;9.02;44.45;102241.78;4996656;28;20522;-73
2024/01/30 05:29:45;;;;;;;7.40;5.65;;;;;;;8.99;44.55;102237.41;4970632;28;20525;-73
2024/01/30 05:32:15;;;;;;;8.75;5.93;;;;;;;9.01;44.46;102234.56;4991451;28;20078;-73
2024/01/30 05:34:43;;;;;;;9.50;6.07;;;;;;;8.99;44.89;102239.25;4987850;28;20498;-73
2024/01/30 05:37:14;;;;;;;9.65;5.88;;;;;;;8.99;44.74;102231.06;4986109;28;20732;-73
2024/01/30 05:39:42;;;;;;;8.63;5.65;;;;;;;8.96;44.51;102232.13;4982088;28;20493;-73
2024/01/30 05:42:10;;;;;;;6.90;5.18;;;;;;;8.97;44.85;102233.00;5001134;28;20149;-73
2024/01/30 05:44:38;;;;;;;7.72;5.53;;;;;;;8.95;44.75;102230.34;4981315;28;20145;-73
2024/01/30 05:47:07;;;;;;;8.48;6.15;;;;;;;8.95;44.57;102232.22;4997088;28;20509;-74
2024/01/30 05:49:36;;;;;;;9.60;5.45;;;;;;;8.95;44.48;102235.81;4987601;28;20398;-74
2024/01/30 05:52:05;;;;;;;9.63;6.43;;;;;;;8.94;44.95;102236.78;4993135;28;20078;-75
2024/01/30 05:54:33;;;;;;;8.13;5.53;;;;;;;8.94;44.59;102238.63;4992581;28;20117;-74
2024/01/30 05:57:01;;;;;;;9.18;5.70;;;;;;;8.90;44.44;102232.50;4989214;28;20081;-75
2024/01/30 05:59:29;;;;;;;9.20;6.18;;;;;;;8.90;44.79;102235.22;4988465;28;20333;-72
2024/01/30 06:01:57;;;;;;;9.00;6.03;;;;;;;8.90;44.86;102231.59;4978117;28;20103;-75
2024/01/30 06:04:25;;;;;;;7.97;5.88;;;;;;;8.88;45.01;102228.09;5006295;28;20038;-74
2024/01/30 06:06:55;;;;;;;8.73;6.13;;;;;;;8.89;44.55;102241.66;4992460;28;20140;-73
2024/01/30 06:09:23;;;;;;;8.88;6.00;;;;;;;8.85;44.81;102234.59;4989670;28;20112;-75
2024/01/30 06:11:51;;;;;;;9.38;6.13;;;;;;;8.85;44.67;102237.31;4980653;28;20050;-77
2024/01/30 06:14:19;;;;;;;9.75;6.20;;;;;;;8.84;44.50;102230.09;4987087;28;20073;-76
2024/01/30 06:16:47;;;;;;;8.60;6.15;;;;;;;8.83;44.76;102228.38;4985790;28;20489;-74
2024/01/30 06:19:15;;;;;;;8.43;5.90;;;;;;;8.82;44.89;102226.59;4980704;28;20474;-74
2024/01/30 06:21:44;;;;;;;9.00;5.70;;;;;;;8.83;44.61;102231.09;5002101;28;20141;-76
2024/01/30 06:24:13;;;;;;;9.43;6.20;;;;;;;8.83;44.70;102228.38;4991746;28;20046;-74
2024/01/30 06:26:41;;;;;;;8.13;5.80;;;;;;;8.80;45.14;102225.81;4984431;28;20486;-79
2024/01/30 06:29:10;;;;;;;7.07;5.63;;;;;;;8.79;44.68;102224.03;4982053;28;20129;-75
2024/01/30 06:31:41;;;;;;;9.55;6.00;;;;;;;8.81;44.87;102222.09;4998799;28;20525;-76
2024/01/30 06:34:09;;;;;;;9.90;5.95;;;;;;;8.79;44.73;102214.97;4975634;28;20109;-76
2024/01/30 06:36:37;;;;;;;8.85;6.13;;;;;;;8.76;44.96;102218.75;4972171;28;20047;-76
2024/01/30 06:39:06;;;;;;;8.40;6.25;;;;;;;8.76;45.08;102218.75;4989638;28;20057;-77
2024/01/30 06:41:35;;;;;;;8.15;6.10;;;;;;;8.75;44.96;102207.94;4989184;28;20105;-77
2024/01/30 06:44:06;;;;;;;8.88;5.78;;;;;;;8.73;44.95;102218.94;5006229;28;20042;-76
2024/01/30 06:46:34;;;;;;;8.48;5.60;;;;;;;8.73;44.90;102210.75;4987605;28;20474;-77
2024/01/30 06:49:02;;;;;;;7.93;5.55;;;;;;;8.71;45.08;102209.97;4982641;28;20085;-76
2024/01/30 06:51:31;;;;;;;8.98;5.80;;;;;;;8.73;45.33;102212.59;4975142;28;20514;-77
2024/01/30 06:53:59;;;;;;;8.90;5.50;;;;;;;8.73;44.86;102223.53;4981867;28;20057;-76
2024/01/30 06:56:27;;;;;;;8.75;5.68;;;;;;;8.71;45.10;102221.75;4989324;28;20529;-76
2024/01/30 06:58:58;;;;;;;9.13;5.45;;;;;;;8.74;45.46;102228.03;4982497;28;20042;-76
2024/01/30 07:01:28;;;;;;;8.88;5.95;;;;;;;8.75;45.30;102237.97;4980151;28;20046;-77
2024/01/30 07:03:58;;;;;;;8.15;5.47;;;;;;;8.74;45.09;102233.47;4980773;28;20610;-77
2024/01/30 07:06:26;;;;;;;7.80;5.40;;;;;;;8.74;45.24;102244.41;4986510;28;20354;-77
2024/01/30 07:08:54;;;;;;;7.70;5.55;;;;;;;8.75;45.38;102237.97;4975352;28;20328;-76
2024/01/30 07:11:23;;;;;;;7.45;5.35;;;;;;;8.76;45.20;102242.44;4985326;28;20545;-77
2024/01/30 07:13:52;;;;;;;8.43;5.43;;;;;;;8.76;45.37;102237.84;4982282;28;20046;-77
2024/01/30 07:16:22;;;;;;;8.57;5.30;;;;;;;8.79;45.35;102237.69;4977769;28;20134;-76
2024/01/30 07:18:50;;;;;;;8.38;5.60;;;;;;;8.79;45.20;102236.81;4975251;28;20546;-77
2024/01/30 07:21:18;;;;;;;8.75;5.97;;;;;;;8.79;45.54;102245.88;4986269;28;20048;-77
2024/01/30 07:23:46;;;;;;;8.25;5.85;;;;;;;8.79;45.59;102242.25;4980401;28;20062;-77
2024/01/30 07:26:14;;;;;;;8.35;5.28;;;;;;;8.80;45.45;102244.91;4985351;28;20045;-77
2024/01/30 07:28:43;;;;;;;8.45;5.72;;;;;;;8.80;45.58;102238.56;4976663;28;20067;-76
2024/01/30 07:31:11;;;;;;;7.43;5.53;;;;;;;8.81;45.35;102245.78;4985177;28;20034;-77
2024/01/30 07:33:41;;;;;;;8.55;5.35;;;;;;;8.83;45.24;102254.78;4984388;28;20086;-77
2024/01/30 07:36:10;;;;;;;8.93;5.80;;;;;;;8.83;45.33;102252.06;4985950;28;20038;-76
2024/01/30 07:38:38;;;;;;;8.00;5.60;;;;;;;8.83;45.40;102254.78;5005291;28;20146;-77
2024/01/30 07:41:06;;;;;;;8.65;5.32;;;;;;;8.84;45.40;102251.94;4984898;28;20066;-76
2024/01/30 07:43:35;;;;;;;7.72;5.75;;;;;;;8.84;45.72;102251.06;4983521;28;20050;-77
2024/01/30 07:46:04;;;;;;;7.93;5.35;;;;;;;8.85;45.44;102247.34;4985009;28;20048;-76
2024/01/30 07:48:34;;;;;;;8.77;5.38;;;;;;;8.85;45.58;102259.16;4978034;28;20217;-77
2024/01/30 07:51:04;;;;;;;8.02;5.15;;;;;;;8.87;45.84;102262.69;4983871;28;20526;-77
2024/01/30 07:53:32;;;;;;;8.20;5.50;;;;;;;8.86;45.57;102260.94;4982520;28;20065;-76
2024/01/30 07:56:00;;;;;;;8.27;5.47;;;;;;;8.88;45.34;102269.03;5001409;28;20054;-76
2024/01/30 07:58:28;;;;;;;8.40;5.47;;;;;;;8.89;45.70;102271.69;5001380;28;20405;-75
2024/01/30 08:00:58;;;;;;;10.45;5.85;;;;;;;8.89;45.51;102274.41;4973109;28;20400;-76
2024/01/30 08:03:26;;;;;;;8.75;5.38;;;;;;;8.90;45.67;102278.91;4982582;28;20034;-75
2024/01/30 08:05:55;;;;;;;8.30;5.38;;;;;;;8.91;45.87;102266.13;4979615;28;20136;-76
2024/01/30 08:08:25;;;;;;;7.85;5.40;;;;;;;8.94;45.54;102279.59;4975101;28;20042;-77
2024/01/30 08:10:53;;;;;;;8.15;5.40;;;;;;;8.91;45.60;102275.22;4982295;28;20042;-76
2024/01/30 08:13:21;;;;;;;7.78;5.55;;;;;;;8.93;45.66;102278.72;4981762;28;20041;-77
2024/01/30 08:15:49;;;;;;;7.53;5.22;;;;;;;8.94;45.69;102280.47;4977156;28;20047;-77
2024/01/30 08:18:17;;;;;;;8.02;5.40;;;;;;;8.93;46.11;102281.44;4983718;28;20456;-77
2024/01/30 08:20:45;;;;;;;8.15;5.88;;;;;;;8.95;45.81;102273.16;4979595;28;20050;-77
2024/01/30 08:23:13;;;;;;;10.30;5.80;;;;;;;8.94;45.86;102272.28;5000539;28;20054;-76
2024/01/30 08:25:43;;;;;;;8.57;5.70;;;;;;;8.97;45.59;102280.31;4982899;28;20057;-77
2024/01/30 08:28:11;;;;;;;9.07;5.55;;;;;;;8.97;45.92;102284.88;4980288;28;20282;-77
2024/01/30 08:30:39;;;;;;;8.25;5.60;;;;;;;8.97;45.60;102287.63;4978013;28;20074;-76
2024/01/30 08:33:07;;;;;;;8.27;5.43;;;;;;;8.97;45.81;102285.75;4977322;28;20042;-78
2024/01/30 08:35:35;;;;;;;8.27;5.20;;;;;;;8.98;45.67;102287.53;4982170;28;20046;-76
2024/01/30 08:38:04;;;;;;;8.18;5.63;;;;;;;8.99;45.79;102282.94;4985203;28;20049;-76
2024/01/30 08:40:31;;;;;;;6.25;5.00;;;;;;;8.99;45.89;102289.28;4980516;28;20056;-77
2024/01/30 08:43:00;;;;;;;9.65;5.93;;;;;;;9.03;45.60;102292.72;4984172;28;20053;-76
2024/01/30 08:45:28;;;;;;;7.07;5.10;;;;;;;9.02;45.56;102283.63;4983664;28;20043;-76
2024/01/30 08:47:56;;;;;;;8.93;5.65;;;;;;;9.04;45.52;102297.22;5001949;28;20048;-76
2024/01/30 08:50:24;;;;;;;7.30;5.30;;;;;;;9.06;46.06;102293.44;4978128;28;20122;-76
2024/01/30 08:52:52;;;;;;;7.97;5.03;;;;;;;9.08;45.77;102299.66;4982838;28;20043;-76
2024/01/30 08:55:20;;;;;;;8.18;5.80;;;;;;;9.11;45.71;102295.88;4979920;28;20050;-76
2024/01/30 08:57:48;;;;;;;8.68;5.53;;;;;;;9.15;45.89;102304.78;4986088;28;20047;-76
2024/01/30 09:00:19;;;;;;;8.27;5.28;;;;;;;9.18;45.87;102308.19;4979490;28;20089;-76
2024/01/30 09:02:47;;;;;;;8.30;5.22;;;;;;;9.18;46.08;102308.19;4973606;28;20042;-76
2024/01/30 09:05:15;;;;;;;8.25;5.22;;;;;;;9.22;46.15;102317.09;4981211;28;20046;-76
2024/01/30 09:07:43;;;;;;;9.02;5.30;;;;;;;9.25;46.02;102320.50;5005239;28;20458;-77
2024/01/30 09:10:12;;;;;;;7.70;5.35;;;;;;;9.28;45.92;102320.34;4977255;28;20043;-77
2024/01/30 09:12:42;;;;;;;8.52;5.95;;;;;;;9.31;45.63;102327.50;4974232;28;20049;-76
2024/01/30 09:15:11;;;;;;;8.63;5.45;;;;;;;9.34;45.99;102328.16;4999483;28;20053;-75
2024/01/30 09:17:40;;;;;;;12.13;5.60;;;;;;;9.37;45.94;102322.53;4986172;28;20061;-76
2024/01/30 09:20:09;;;;;;;8.02;6.05;;;;;;;9.38;45.86;102317.94;4986512;28;20053;-76
2024/01/30 09:22:37;;;;;;;8.63;5.93;;;;;;;9.41;45.86;102323.28;4986898;28;20046;-76
2024/01/30 09:25:05;;;;;;;8.93;5.88;;;;;;;9.42;45.68;102331.34;4985533;28;20046;-76
2024/01/30 09:27:33;;;;;;;9.18;5.50;;;;;;;9.44;46.11;102328.53;4984723;28;20043;-75
2024/01/30 09:30:03;;;;;;;9.30;6.03;;;;;;;9.45;45.88;102323.00;5001457;28;20054;-76
2024/01/30 09:32:31;;;;;;;7.22;4.93;;;;;;;9.47;45.76;102336.56;4991099;28;20343;-75
2024/01/30 09:35:00;;;;;;;8.00;5.65;;;;;;;9.49;45.63;102336.50;5001577;28;20133;-76
2024/01/30 09:37:29;;;;;;;10.05;5.53;;;;;;;9.50;45.54;102338.22;4990514;28;20137;-75
2024/01/30 09:39:58;;;;;;;8.05;5.50;;;;;;;9.51;45.78;102343.59;4979683;28;20375;-76
2024/01/30 09:42:34;;;;;;;8.93;5.40;;;;;;;9.54;45.96;102343.44;4986332;28;20046;-77
2024/01/30 09:45:03;;;;;;;7.78;5.10;;;;;;;9.54;46.07;102340.69;4981860;28;20475;-76
2024/01/30 09:47:33;;;;;;;8.48;5.30;;;;;;;9.57;46.09;102337.78;4975946;28;20524;-76
2024/01/30 09:50:05;;;;;;;8.55;5.35;;;;;;;9.61;45.74;102342.09;4980961;28;20051;-76
2024/01/30 09:52:43;;;;;;;;;;;;;;;9.36;46.59;102336.28;4990871;28;20481;-75
2024/01/30 09:55:11;;;;;;;7.90;5.07;;;;;;;9.59;46.05;102338.56;4983738;28;19977;-76
2024/01/30 09:57:40;;;;;;;6.97;4.60;;;;;;;9.67;46.00;102338.97;4983129;28;20042;-76
2024/01/30 10:00:09;;;;;;;7.25;5.05;;;;;;;9.71;45.98;102339.69;5000734;28;20046;-76
2024/01/30 10:02:41;;;;;;;7.95;4.97;;;;;;;9.72;46.05;102333.25;4987905;28;20535;-76
2024/01/30 10:05:12;;;;;;;8.18;5.35;;;;;;;9.77;46.21;102337.44;4984122;28;20263;-76
2024/01/30 10:07:51;;;;;;;7.10;5.25;;;;;;;9.79;45.69;102342.84;4982325;28;20046;-76
2024/01/30 10:10:19;;;;;;;7.18;5.00;;;;;;;9.79;46.02;102340.97;4991326;28;20125;-76
2024/01/30 10:12:48;;;;;;;7.85;5.07;;;;;;;9.82;45.60;102342.66;4982669;28;20053;-75
2024/01/30 10:15:18;;;;;;;7.65;5.03;;;;;;;9.83;46.09;102334.34;4987599;28;20101;-76
2024/01/30 10:17:46;;;;;;;8.05;5.45;;;;;;;9.87;45.85;102342.34;4983382;28;20050;-77
2024/01/30 10:20:17;;;;;;;9.45;5.50;;;;;;;9.90;45.45;102343.06;4989754;28;20065;-76
2024/01/30 10:22:45;;;;;;;8.40;5.32;;;;;;;9.91;45.90;102333.84;4984774;28;20074;-75
2024/01/30 10:25:23;;;;;;;7.50;5.03;;;;;;;9.95;45.96;102335.44;5006003;28;20074;-77
2024/01/30 10:27:54;;;;;;;7.88;5.53;;;;;;;9.97;45.87;102343.56;4984688;28;20285;-76
2024/01/30 10:30:22;;;;;;;7.97;5.43;;;;;;;9.98;46.08;102348.06;4984304;28;20038;-76
2024/01/30 10:32:50;;;;;;;7.85;5.55;;;;;;;10.00;46.01;102344.22;4980859;28;20049;-75
2024/01/30 10:35:20;;;;;;;7.22;4.95;;;;;;;10.04;45.90;102342.22;5005956;28;20065;-76
2024/01/30 10:37:49;;;;;;;8.05;5.50;;;;;;;10.05;45.82;102338.50;4984121;28;20065;-75
2024/01/30 10:40:17;;;;;;;7.63;5.65;;;;;;;10.07;45.51;102336.56;4984211;28;20113;-76
2024/01/30 10:42:46;;;;;;;8.50;5.25;;;;;;;10.09;45.46;102331.84;4981876;28;20130;-76
2024/01/30 10:45:15;;;;;;;8.77;5.35;;;;;;;10.11;45.79;102332.63;4986406;28;20402;-76
2024/01/30 10:47:49;;;;;;;7.47;5.05;;;;;;;10.14;45.41;102336.06;4980181;28;20050;-76
2024/01/30 10:50:17;;;;;;;8.55;5.38;;;;;;;10.16;45.98;102333.22;5006196;28;20096;-76
2024/01/30 10:52:48;;;;;;;7.70;5.75;;;;;;;10.19;46.00;102339.38;4985906;28;20046;-77
2024/01/30 10:55:17;;;;;;;8.18;5.38;;;;;;;10.21;45.39;102347.50;5011401;22;20049;-77
2024/01/30 10:57:45;;;;;;;7.47;5.25;;;;;;;10.22;45.61;102343.81;5028467;28;20410;-77
2024/01/30 11:00:15;;;;;;;7.53;4.95;;;;;;;10.27;45.46;102344.38;5041016;28;20408;-76
2024/01/30 11:02:47;;;;;;;7.45;5.32;;;;;;;10.30;45.80;102337.84;5054665;28;20044;-76
2024/01/30 11:05:24;;;;;;;7.65;5.20;;;;;;;10.30;45.50;102336.00;5032419;28;20099;-76
2024/01/30 11:07:54;;;;;;;7.63;5.40;;;;;;;10.34;45.37;102342.13;5047409;28;20427;-76
2024/01/30 11:10:26;;;;;;;8.32;5.38;;;;;;;10.37;45.43;102333.75;5037070;28;20549;-77
2024/01/30 11:12:55;;;;;;;9.13;5.90;;;;;;;10.35;46.02;102346.63;5031523;28;20046;-76
2024/01/30 11:15:26;;;;;;;7.90;5.40;;;;;;;10.41;45.72;102343.50;5038634;28;20041;-76
2024/01/30 11:17:54;;;;;;;9.25;5.53;;;;;;;10.42;45.44;102345.25;5032224;28;20069;-77
2024/01/30 11:20:26;;;;;;;8.82;6.10;;;;;;;10.45;45.69;102347.81;5049675;28;20068;-76
2024/01/30 11:22:58;;;;;;;8.70;5.30;;;;;;;10.45;45.32;102340.47;5053468;28;20050;-77
2024/01/30 11:25:26;;;;;;;8.82;5.35;;;;;;;10.48;45.48;102347.63;5033308;28;20443;-75
2024/01/30 11:27:56;;;;;;;8.90;5.63;;;;;;;10.50;45.45;102346.53;5038505;28;20389;-74
2024/01/30 11:30:26;;;;;;;9.60;5.90;;;;;;;10.51;45.45;102347.41;5056875;28;20077;-74
2024/01/30 11:33:02;;;;;;;8.65;5.60;;;;;;;10.54;45.24;102341.78;5052364;28;20054;-74
2024/01/30 11:35:33;;;;;;;8.05;5.65;;;;;;;10.52;45.20;102347.31;5030411;28;20517;-74
2024/01/30 11:38:04;;;;;;;8.10;4.78;;;;;;;10.55;45.63;102340.81;5030523;28;20099;-74